Fredonia, AZ (86052)

12:31 AM MST on October 24, 2014 (GMT -0700)
RAWS KFO PORTABLE 4 UT US | Change Station
CLOSE
Current Station
Personal Weather Station
Location: Canyon Point, UT
Elevation: 4925 ft
Nearby Weather Stations

Elev 4925 ft 37.04 °N, 112.52 °W | Updated 54 minutes ago

Partly Cloudy
Partly Cloudy
54 °F
Feels Like 54 °F
N
4
Wind Variable Wind from NW
Gusts 7.0 mph

Today
High -- | Low -- °F
--% Chance of Precip.
Yesterday
High -- | Low -- °F
Precip. -- in
6:46 AM 5:41 PM
New Moon, 0% visible
Pressure 30.25 in
Visibility 4.0 miles
Clouds Clear
Dew Point 30 °F
Humidity 40%
Rainfall 0.00 in
Snow Depth Not available.
UV 0 out of 12
Pollen 4.30 out of 12
Air Quality Not available.
Flu Activity No Activity
METAR KAZC 240715Z AUTO 16005KT 4SM HZ CLR 06/01 A3025 RMK AO2 T00620008

More Conditions Fewer Conditions

Pressure 30.25 in
Visibility 4.0 miles
Clouds Clear
Dew Point 30 °F
Humidity 40%
Rainfall 0.00 in
Snow Depth Not available.
UV 0 out of 12
Pollen 4.30 out of 12
Air Quality Not available.
Flu Activity No Activity
METAR KAZC 240715Z AUTO 16005KT 4SM HZ CLR 06/01 A3025 RMK AO2 T00620008

More Conditions Fewer Conditions

10-Day Weather Forecast

Almanac

Astronomy

Oct. 24, 2014 Rise Set
Actual Time 6:46 AM MST 5:41 PM MST
Civil Twilight 6:19 AM MST 6:08 PM MST
Nautical Twilight 5:49 AM MST 6:38 PM MST
Astronomical Twilight 5:19 AM MST 7:08 PM MST
Moon 7:28 AM MST 6:25 PM MST
Length of Visible Light 11h 48m
Length of Day
10h 55m
Tomorrow will be 2m 10s shorter.
New Moon, 0% of the Moon is Illuminated
Today
New Moon
Oct 30
First Quarter
Nov 6
Full
Nov 14
Last Quarter
Nov 22
New

Today's Extremes

State Highs State Lows

Community

WunderPhotos

Upload Photos

1,764,512 photos uploaded!

WunderBlogs® & News

Nearby

Snow Depth

Station Depth Elevation
Snowslide Canyon 0 in 9730 ft
White Horse Lake 1 in 7180 ft
Mormon Mountain 0 in 7500 ft
Happy Jack 0 in 7630 ft
Baker Butte 0 in 7300 ft

Earthquake Activity

City Distance Mag. Time & Date
No recent earthquake activity has been reported nearby.
Minimum magnitude displayed is 2.5.

Coastal Water Temperatures

Place Temperature
No Stations Reporting

Nearby Weather Stations